Time;durP1;ratioP1;P1;durP2;ratioP2;P2;SDS_P1;SDS_P2;PMS_P1;PMS_P2;Temp;Humidity;BMP_temperature;BMP_pressure;BME280_temperature;BME280_humidity;BME280_pressure;Samples;Min_cycle;Max_cycle;Signal;HPM_P1;HPM_P2
2022/05/07 03:01:54;;;;;;;1.88;1.40;;;22.10;48.80;;;;;;5224976;23;45577;-64
2022/05/07 03:04:19;;;;;;;1.38;1.17;;;22.10;48.80;;;;;;4875955;28;45655;-64
2022/05/07 03:06:45;;;;;;;1.33;1.20;;;22.10;48.90;;;;;;4898252;28;45535;-65
2022/05/07 03:09:11;;;;;;;1.80;1.25;;;22.00;48.80;;;;;;4874320;28;45239;-65
2022/05/07 03:11:36;;;;;;;1.30;1.20;;;22.00;48.80;;;;;;4901491;28;45252;-63
2022/05/07 03:14:02;;;;;;;1.50;1.30;;;22.10;48.90;;;;;;4908729;28;45949;-64
2022/05/07 03:16:28;;;;;;;1.50;1.35;;;22.10;48.80;;;;;;4888668;28;45881;-64
2022/05/07 03:18:54;;;;;;;1.52;1.20;;;22.00;48.80;;;;;;4901300;28;45396;-64
2022/05/07 03:21:19;;;;;;;1.38;1.10;;;22.00;48.80;;;;;;4909367;28;45673;-64
2022/05/07 03:23:46;;;;;;;1.20;1.05;;;22.00;48.80;;;;;;4915935;28;46702;-64
2022/05/07 03:26:12;;;;;;;1.17;1.08;;;22.00;48.80;;;;;;4910622;28;45692;-64
2022/05/07 03:28:38;;;;;;;1.30;1.20;;;22.00;48.90;;;;;;4910685;28;45321;-64
2022/05/07 03:31:04;;;;;;;1.27;1.10;;;22.00;48.80;;;;;;4897803;28;46164;-64
2022/05/07 03:33:30;;;;;;;1.20;1.10;;;22.00;48.80;;;;;;4885451;28;45346;-64
2022/05/07 03:35:56;;;;;;;1.95;0.90;;;22.00;48.80;;;;;;4902426;28;45620;-64
2022/05/07 03:38:22;;;;;;;2.13;1.25;;;22.00;48.80;;;;;;4902943;28;45296;-64
2022/05/07 03:40:48;;;;;;;1.50;1.20;;;22.00;48.80;;;;;;4890272;28;45138;-63
2022/05/07 03:43:14;;;;;;;1.38;1.25;;;22.00;48.80;;;;;;4883472;28;45876;-64
2022/05/07 03:45:39;;;;;;;1.10;1.00;;;22.00;48.80;;;;;;4902377;28;45638;-64
2022/05/07 03:48:05;;;;;;;1.27;1.17;;;22.00;48.80;;;;;;4889489;28;45714;-65
2022/05/07 03:50:31;;;;;;;1.33;1.23;;;22.00;48.70;;;;;;4920037;28;46111;-64
2022/05/07 03:55:41;;;;;;;1.27;1.00;;;21.90;48.70;;;;;;4889706;28;46308;-65
2022/05/07 03:58:11;;;;;;;1.20;1.10;;;22.00;48.80;;;;;;4920320;28;46178;-66
2022/05/07 04:00:39;;;;;;;1.27;1.17;;;21.90;48.70;;;;;;4900533;28;46069;-65
2022/05/07 04:03:05;;;;;;;1.20;1.10;;;22.00;48.80;;;;;;4910410;28;46319;-66
2022/05/07 04:05:30;;;;;;;1.30;1.20;;;21.90;48.70;;;;;;4909346;28;46390;-66
2022/05/07 04:07:56;;;;;;;1.10;1.00;;;21.90;48.70;;;;;;4897836;28;45091;-66
2022/05/07 04:10:22;;;;;;;0.90;0.90;;;21.90;48.70;;;;;;4909000;28;45248;-66
2022/05/07 04:12:50;;;;;;;1.02;1.02;;;21.90;48.70;;;;;;4896552;28;45306;-65
2022/05/07 04:15:16;;;;;;;1.27;1.17;;;21.90;48.70;;;;;;4901877;28;45489;-66
2022/05/07 04:17:42;;;;;;;1.17;1.08;;;21.90;48.70;;;;;;4911857;28;45452;-66
2022/05/07 04:20:09;;;;;;;1.77;1.20;;;21.90;48.70;;;;;;4914066;28;45754;-66
2022/05/07 04:22:35;;;;;;;1.02;0.93;;;21.90;48.70;;;;;;4931602;28;45798;-66
2022/05/07 04:25:02;;;;;;;1.00;1.00;;;21.90;48.70;;;;;;4897054;28;44737;-65
2022/05/07 04:27:27;;;;;;;1.20;1.10;;;21.90;48.70;;;;;;4913232;28;45291;-65
2022/05/07 04:29:53;;;;;;;1.20;1.10;;;21.90;48.70;;;;;;4911781;28;45251;-66
2022/05/07 04:32:18;;;;;;;1.38;1.00;;;21.90;48.70;;;;;;4930134;28;45754;-65
2022/05/07 04:34:44;;;;;;;1.23;1.10;;;21.90;48.70;;;;;;4911872;28;45517;-66
2022/05/07 04:37:09;;;;;;;1.20;1.10;;;21.90;48.70;;;;;;4903847;28;45387;-65
2022/05/07 04:39:35;;;;;;;1.23;1.00;;;21.90;48.70;;;;;;4886355;28;44732;-65
2022/05/07 04:42:04;;;;;;;1.30;0.93;;;21.90;48.70;;;;;;4887326;28;45880;-65
2022/05/07 04:44:30;;;;;;;1.90;1.10;;;21.90;48.70;;;;;;4922201;28;45317;-66
2022/05/07 04:46:55;;;;;;;1.23;1.13;;;21.80;48.70;;;;;;4924290;28;45665;-65
2022/05/07 04:49:22;;;;;;;2.58;1.30;;;21.90;48.70;;;;;;4873056;28;45032;-64
2022/05/07 04:51:50;;;;;;;1.88;1.35;;;21.80;48.70;;;;;;4904236;28;46964;-65
2022/05/07 04:54:17;;;;;;;1.38;0.93;;;21.90;48.70;;;;;;4906258;28;45248;-65
2022/05/07 04:56:43;;;;;;;1.10;1.00;;;21.90;48.80;;;;;;4889238;28;44825;-65
2022/05/07 04:59:08;;;;;;;1.25;1.15;;;21.80;48.70;;;;;;4895951;28;45139;-64
2022/05/07 05:01:34;;;;;;;1.25;1.10;;;21.80;48.70;;;;;;4904239;28;45643;-64
2022/05/07 05:03:59;;;;;;;1.77;1.30;;;21.80;48.80;;;;;;4920895;28;45511;-66
2022/05/07 05:06:26;;;;;;;1.52;1.40;;;21.80;48.70;;;;;;4886281;28;45827;-65
2022/05/07 05:08:52;;;;;;;1.52;1.23;;;21.80;48.70;;;;;;4901229;28;46798;-66
2022/05/07 05:11:18;;;;;;;1.30;1.20;;;21.80;48.70;;;;;;4903576;28;45814;-66
2022/05/07 05:13:43;;;;;;;1.10;1.10;;;21.80;48.70;;;;;;4904343;28;45522;-65
2022/05/07 05:16:10;;;;;;;2.65;0.93;;;21.80;48.70;;;;;;4906757;28;45627;-65
2022/05/07 05:18:36;;;;;;;1.20;1.10;;;21.80;48.80;;;;;;4889039;28;46323;-64
2022/05/07 05:21:02;;;;;;;1.00;1.00;;;21.80;48.80;;;;;;4923109;28;45888;-65
2022/05/07 05:23:27;;;;;;;1.55;1.02;;;21.90;48.70;;;;;;4887803;28;45813;-65
2022/05/07 05:25:53;;;;;;;1.45;1.10;;;21.90;48.60;;;;;;4887283;28;45734;-65
2022/05/07 05:28:19;;;;;;;1.25;1.15;;;21.90;48.60;;;;;;4924388;28;45502;-64
2022/05/07 05:30:46;;;;;;;1.13;1.08;;;22.00;48.50;;;;;;4885260;28;45351;-66
2022/05/07 05:33:12;;;;;;;1.17;1.08;;;22.00;48.40;;;;;;4906646;28;45800;-65
2022/05/07 05:35:38;;;;;;;1.63;1.20;;;22.00;48.30;;;;;;4904170;28;45315;-64
2022/05/07 05:38:04;;;;;;;1.35;1.20;;;22.10;48.30;;;;;;4921695;28;45263;-66
2022/05/07 05:40:29;;;;;;;1.77;1.35;;;22.10;48.10;;;;;;4904501;28;45430;-66
2022/05/07 05:42:55;;;;;;;1.60;1.02;;;22.20;48.10;;;;;;4903476;28;45394;-66
2022/05/07 05:45:20;;;;;;;1.40;1.23;;;22.20;48.00;;;;;;4920555;28;45839;-65
2022/05/07 05:47:47;;;;;;;1.20;1.10;;;22.20;47.90;;;;;;4903903;28;45472;-64
2022/05/07 05:50:12;;;;;;;1.23;1.10;;;22.20;47.90;;;;;;4892772;28;45771;-65
2022/05/07 05:52:39;;;;;;;1.65;1.40;;;22.20;47.90;;;;;;4890662;28;45618;-64
2022/05/07 05:55:04;;;;;;;1.23;1.13;;;22.30;47.90;;;;;;4905680;28;45364;-65
2022/05/07 05:57:30;;;;;;;1.25;1.10;;;22.20;47.80;;;;;;4903493;28;45637;-66
2022/05/07 05:59:55;;;;;;;1.15;1.08;;;22.20;47.80;;;;;;4904020;28;47012;-65
2022/05/07 06:02:22;;;;;;;1.10;1.00;;;22.20;47.90;;;;;;4903750;28;47090;-64
2022/05/07 06:04:48;;;;;;;1.35;1.20;;;22.20;47.90;;;;;;4890400;28;46296;-65
2022/05/07 06:07:14;;;;;;;2.15;1.33;;;22.20;48.00;;;;;;4888860;28;45808;-64
2022/05/07 06:09:39;;;;;;;1.85;1.30;;;22.20;48.00;;;;;;4889337;28;45680;-65
2022/05/07 06:12:05;;;;;;;1.27;1.17;;;22.20;48.00;;;;;;4924296;28;45919;-65
2022/05/07 06:14:31;;;;;;;1.20;1.10;;;22.20;48.60;;;;;;4905620;28;45091;-65
2022/05/07 06:16:56;;;;;;;1.48;1.35;;;22.20;48.00;;;;;;4907466;28;44839;-65
2022/05/07 06:19:22;;;;;;;1.13;1.02;;;22.20;48.10;;;;;;4911026;28;46196;-65
2022/05/07 06:21:47;;;;;;;1.15;1.05;;;22.20;48.70;;;;;;4900364;28;45363;-65
2022/05/07 06:29:41;;;;;;;2.63;1.23;;;22.20;48.10;;;;;;4928595;28;46856;-66
2022/05/07 06:32:07;;;;;;;1.30;1.20;;;22.20;48.10;;;;;;4930003;28;45314;-65
2022/05/07 06:34:33;;;;;;;1.10;1.00;;;22.20;48.10;;;;;;4880018;28;45360;-66
2022/05/07 06:36:58;;;;;;;1.45;1.23;;;22.20;48.10;;;;;;4912803;28;45720;-66
2022/05/07 06:39:24;;;;;;;1.00;1.00;;;22.20;48.10;;;;;;4928851;28;46536;-66
2022/05/07 06:41:50;;;;;;;1.73;0.88;;;22.20;48.10;;;;;;4911218;28;44768;-66
2022/05/07 06:44:15;;;;;;;1.38;0.95;;;22.30;48.10;;;;;;4894781;28;45827;-66
2022/05/07 06:46:41;;;;;;;1.00;1.00;;;22.30;48.10;;;;;;4928017;28;45274;-65
2022/05/07 06:49:06;;;;;;;1.05;0.98;;;22.30;48.00;;;;;;4892793;28;46761;-66
2022/05/07 06:51:33;;;;;;;1.45;1.30;;;22.30;48.00;;;;;;4896159;28;45161;-65
2022/05/07 06:53:59;;;;;;;1.65;1.35;;;22.30;48.00;;;;;;4911680;28;45704;-66
2022/05/07 06:56:24;;;;;;;1.33;1.10;;;22.30;48.00;;;;;;4896023;28;45030;-65
2022/05/07 06:58:50;;;;;;;1.70;1.05;;;22.30;48.00;;;;;;4909230;28;45546;-65
2022/05/07 07:01:15;;;;;;;1.30;1.20;;;22.30;48.00;;;;;;4926285;28;45696;-66
2022/05/07 07:03:41;;;;;;;1.42;1.20;;;22.30;48.00;;;;;;4901561;28;44769;-65
2022/05/07 07:06:07;;;;;;;2.95;1.33;;;22.40;48.10;;;;;;4911330;28;44899;-65
2022/05/07 07:08:32;;;;;;;1.15;1.05;;;22.30;48.00;;;;;;4911312;28;45311;-65
2022/05/07 07:10:58;;;;;;;1.08;1.00;;;22.30;48.10;;;;;;4909188;28;45423;-65
2022/05/07 07:13:24;;;;;;;1.13;1.02;;;22.30;48.10;;;;;;4908173;28;45120;-65
2022/05/07 07:15:50;;;;;;;1.10;1.00;;;22.40;48.10;;;;;;4909324;28;45753;-64
2022/05/07 07:18:16;;;;;;;2.70;1.15;;;22.40;48.10;;;;;;4894431;28;47361;-65
2022/05/07 07:20:43;;;;;;;1.15;1.05;;;22.40;48.10;;;;;;4893103;28;45880;-65
2022/05/07 07:23:11;;;;;;;1.45;1.30;;;22.40;48.10;;;;;;4899171;28;45977;-66
2022/05/07 07:25:37;;;;;;;1.08;0.98;;;22.40;48.00;;;;;;4908976;28;45253;-66
2022/05/07 07:28:03;;;;;;;0.90;0.90;;;22.40;48.00;;;;;;4891036;28;46816;-65
2022/05/07 07:30:29;;;;;;;0.90;0.90;;;22.40;48.00;;;;;;4897744;28;45774;-65
2022/05/07 07:32:59;;;;;;;1.15;1.05;;;22.40;48.00;;;;;;4889059;28;46957;-64
2022/05/07 07:35:24;;;;;;;1.02;1.02;;;22.40;48.00;;;;;;4886482;28;45286;-66
2022/05/07 07:37:50;;;;;;;1.25;1.15;;;22.50;48.00;;;;;;4887891;28;45570;-64
2022/05/07 07:40:16;;;;;;;1.50;0.68;;;22.50;48.00;;;;;;4901996;28;45560;-64
2022/05/07 07:42:41;;;;;;;1.20;1.10;;;22.50;48.00;;;;;;4902483;28;44755;-65
2022/05/07 07:48:05;;;;;;;1.10;1.00;;;22.50;48.10;;;;;;4908961;28;45452;-65
2022/05/07 07:50:34;;;;;;;1.25;1.15;;;22.50;48.00;;;;;;4923053;28;45678;-65
2022/05/07 07:53:06;;;;;;;1.30;1.20;;;22.50;48.00;;;;;;4925874;28;45312;-65
2022/05/07 07:55:32;;;;;;;1.17;1.05;;;22.50;47.90;;;;;;4894185;28;45113;-64
2022/05/07 07:57:59;;;;;;;1.25;1.15;;;22.60;47.90;;;;;;4877368;28;46939;-65
2022/05/07 08:00:25;;;;;;;1.08;1.00;;;22.60;47.90;;;;;;4889201;28;45489;-64
2022/05/07 08:02:55;;;;;;;1.52;0.90;;;22.60;47.90;;;;;;4888108;28;45326;-64
2022/05/07 08:05:31;;;;;;;0.82;0.82;;;22.60;47.80;;;;;;4890903;28;46169;-65
2022/05/07 08:13:26;;;;;;;1.20;1.10;;;22.70;47.70;;;;;;4925988;28;44856;-64
2022/05/07 08:15:51;;;;;;;1.20;1.10;;;22.70;47.70;;;;;;4926187;28;45672;-64
2022/05/07 08:18:17;;;;;;;1.23;1.13;;;22.70;47.70;;;;;;4927995;28;46471;-66
2022/05/07 08:20:43;;;;;;;1.60;1.33;;;22.70;47.70;;;;;;4904818;28;46157;-65
2022/05/07 08:23:09;;;;;;;2.45;1.02;;;22.70;47.60;;;;;;4890553;28;45349;-65
2022/05/07 08:25:35;;;;;;;1.27;0.90;;;22.70;47.60;;;;;;4891540;28;45584;-65
2022/05/07 08:28:00;;;;;;;1.27;1.08;;;22.70;47.60;;;;;;4874369;28;46616;-65
2022/05/07 08:30:26;;;;;;;1.05;0.70;;;22.70;47.70;;;;;;4889767;28;46206;-66
2022/05/07 08:32:51;;;;;;;1.13;0.80;;;22.80;47.70;;;;;;4908484;28;46344;-65
2022/05/07 08:35:18;;;;;;;1.02;0.93;;;22.80;47.70;;;;;;4909872;28;45531;-65
2022/05/07 08:37:44;;;;;;;1.20;1.02;;;22.80;47.70;;;;;;4926966;28;45050;-65
2022/05/07 08:40:13;;;;;;;1.83;1.10;;;22.80;47.50;;;;;;4911631;28;46200;-65
2022/05/07 08:42:39;;;;;;;2.22;1.30;;;22.80;47.50;;;;;;4893492;28;45336;-65
2022/05/07 08:45:05;;;;;;;1.30;1.20;;;22.80;47.50;;;;;;4910804;28;45732;-66
2022/05/07 08:47:31;;;;;;;2.03;1.30;;;22.90;47.50;;;;;;4928636;28;45306;-65
2022/05/07 08:49:57;;;;;;;1.08;0.98;;;22.90;47.40;;;;;;4893679;28;45637;-65
2022/05/07 08:52:23;;;;;;;1.30;1.00;;;22.90;47.40;;;;;;4877091;28;45282;-65
2022/05/07 08:54:48;;;;;;;3.03;1.10;;;22.90;47.40;;;;;;4894333;28;45305;-65
2022/05/07 08:57:14;;;;;;;1.63;1.13;;;22.90;47.40;;;;;;4909157;28;45296;-65
2022/05/07 08:59:41;;;;;;;2.22;1.23;;;22.90;47.40;;;;;;4901061;28;45549;-66
2022/05/07 09:02:07;;;;;;;2.42;1.30;;;22.90;47.30;;;;;;4909123;28;45454;-65
2022/05/07 09:04:32;;;;;;;1.63;1.05;;;23.00;47.40;;;;;;4908428;28;45354;-65
2022/05/07 09:07:01;;;;;;;1.42;1.08;;;22.90;47.30;;;;;;4927237;28;46427;-66
2022/05/07 09:09:30;;;;;;;1.48;1.13;;;23.00;47.40;;;;;;4910843;28;45628;-64
2022/05/07 09:11:56;;;;;;;1.60;1.10;;;22.90;47.30;;;;;;4910584;28;45709;-66
2022/05/07 09:14:29;;;;;;;1.55;1.20;;;23.00;47.40;;;;;;4910519;28;45440;-65
2022/05/07 09:17:00;;;;;;;2.45;1.30;;;23.00;47.30;;;;;;4912665;28;45259;-65
2022/05/07 09:19:30;;;;;;;2.95;1.58;;;23.10;47.40;;;;;;4912656;28;45274;-66
2022/05/07 09:22:09;;;;;;;2.28;1.45;;;23.00;47.20;;;;;;4895618;28;45224;-65
2022/05/07 09:24:35;;;;;;;1.00;1.00;;;23.10;47.20;;;;;;4930171;28;45338;-65
2022/05/07 09:27:03;;;;;;;1.55;1.13;;;23.10;47.30;;;;;;4910859;28;45468;-65
2022/05/07 09:29:29;;;;;;;1.88;1.33;;;23.10;47.30;;;;;;4905775;28;46211;-66
2022/05/07 09:31:54;;;;;;;1.40;1.30;;;23.10;47.30;;;;;;4912589;28;45316;-66
2022/05/07 09:37:18;;;;;;;1.20;1.10;;;23.10;47.20;;;;;;4899530;28;46537;-66
2022/05/07 09:39:49;;;;;;;1.10;1.00;;;23.10;47.20;;;;;;4896444;28;45655;-64
2022/05/07 09:42:19;;;;;;;2.13;1.00;;;23.10;47.20;;;;;;4911166;28;45393;-66
2022/05/07 09:44:45;;;;;;;1.80;1.27;;;23.10;47.10;;;;;;4911081;28;45357;-66
2022/05/07 09:47:12;;;;;;;1.17;0.98;;;23.20;47.30;;;;;;4930348;28;45318;-65
2022/05/07 09:50:20;;;;;;;1.05;0.95;;;23.20;47.20;;;;;;4883492;28;45442;-65
2022/05/07 09:52:28;;;;;;;1.85;1.25;;;23.20;47.20;;;;;;4915331;28;44956;-65
2022/05/07 09:57:38;;;;;;;1.35;0.98;;;23.20;47.20;;;;;;4899088;28;46392;-64
2022/05/07 10:00:07;;;;;;;1.98;1.25;;;23.20;47.20;;;;;;4912687;28;45664;-64
2022/05/07 10:02:39;;;;;;;1.25;1.08;;;23.20;47.20;;;;;;4897571;28;45778;-64
2022/05/07 10:05:29;;;;;;;1.42;1.33;;;23.20;47.20;;;;;;4918736;28;46359;-64
2022/05/07 10:08:17;;;;;;;1.08;0.98;;;23.20;47.10;;;;;;4919763;28;46001;-64
2022/05/07 10:10:43;;;;;;;1.45;1.30;;;23.30;47.20;;;;;;4915033;28;45857;-65
2022/05/07 10:13:09;;;;;;;1.25;1.00;;;23.30;47.30;;;;;;4894465;28;45059;-65
2022/05/07 10:15:35;;;;;;;1.13;0.93;;;23.30;47.30;;;;;;4881051;28;45790;-65
2022/05/07 10:18:07;;;;;;;1.17;0.93;;;23.30;47.30;;;;;;4910229;28;45674;-64
2022/05/07 10:20:49;;;;;;;1.85;0.93;;;23.30;47.20;;;;;;4899613;28;45358;-64
2022/05/07 10:23:26;;;;;;;1.25;1.15;;;23.30;47.30;;;;;;4879409;28;46176;-64
2022/05/07 10:25:56;;;;;;;1.33;0.90;;;23.30;47.20;;;;;;4894132;28;45545;-65
2022/05/07 10:28:21;;;;;;;1.15;1.05;;;23.30;47.20;;;;;;4894547;28;45122;-66
2022/05/07 10:30:52;;;;;;;1.40;1.30;;;23.30;47.20;;;;;;4900700;28;45351;-65
2022/05/07 10:33:18;;;;;;;2.03;1.08;;;23.40;47.20;;;;;;4898431;28;46515;-65
2022/05/07 10:35:54;;;;;;;1.27;1.17;;;23.30;47.10;;;;;;4903265;28;45219;-66
2022/05/07 10:38:23;;;;;;;1.52;1.30;;;23.30;47.00;;;;;;4900710;28;47451;-65
2022/05/07 10:40:53;;;;;;;1.10;0.90;;;23.40;47.10;;;;;;4920860;28;45731;-66
2022/05/07 10:43:36;;;;;;;1.48;1.23;;;23.40;47.10;;;;;;4886940;28;45788;-66
2022/05/07 10:46:02;;;;;;;1.20;1.10;;;23.40;47.00;;;;;;4884790;28;45727;-66
2022/05/07 10:48:28;;;;;;;0.90;0.90;;;23.40;47.10;;;;;;4900839;28;47782;-65
2022/05/07 10:50:55;;;;;;;1.27;1.13;;;23.40;47.00;;;;;;4887646;28;45105;-65
2022/05/07 10:53:21;;;;;;;1.45;1.25;;;23.40;47.00;;;;;;4884246;28;46205;-64
2022/05/07 10:55:49;;;;;;;1.92;1.23;;;23.40;47.00;;;;;;4902760;28;45619;-65
2022/05/07 10:58:15;;;;;;;1.33;1.20;;;23.40;47.00;;;;;;4898089;28;45830;-65
2022/05/07 11:00:41;;;;;;;1.40;1.30;;;23.40;47.00;;;;;;4918286;28;45638;-65
2022/05/07 11:03:08;;;;;;;1.35;1.17;;;23.40;47.00;;;;;;4920222;28;45759;-65
2022/05/07 11:05:34;;;;;;;1.00;1.00;;;23.50;47.00;;;;;;4921391;28;45277;-66
2022/05/07 11:08:00;;;;;;;1.23;1.13;;;23.50;47.00;;;;;;4899205;28;45656;-66
2022/05/07 11:10:26;;;;;;;1.23;1.08;;;23.40;46.90;;;;;;4896527;28;45828;-66
2022/05/07 11:12:52;;;;;;;1.40;1.30;;;23.50;47.00;;;;;;4885031;28;46013;-65
2022/05/07 11:15:24;;;;;;;3.90;1.00;;;23.50;47.00;;;;;;4918348;28;45814;-65
2022/05/07 11:17:50;;;;;;;1.20;1.10;;;23.50;46.90;;;;;;4876765;28;46116;-65
2022/05/07 11:20:16;;;;;;;1.75;1.10;;;23.50;47.00;;;;;;4866717;28;46152;-65
2022/05/07 11:22:42;;;;;;;1.30;1.20;;;23.50;47.00;;;;;;4889974;28;45658;-65
2022/05/07 11:25:08;;;;;;;1.27;1.17;;;23.50;47.00;;;;;;4918528;28;45382;-64
2022/05/07 11:27:34;;;;;;;1.42;1.10;;;23.50;47.00;;;;;;4865605;28;46535;-66
2022/05/07 11:30:00;;;;;;;1.08;0.93;;;23.60;47.10;;;;;;4899505;28;45586;-64
2022/05/07 11:32:36;;;;;;;1.20;1.10;;;23.50;47.00;;;;;;4913291;28;45814;-65
2022/05/07 11:35:01;;;;;;;1.52;1.10;;;23.60;47.00;;;;;;4897916;28;45878;-64
2022/05/07 11:37:27;;;;;;;1.23;1.13;;;23.50;47.00;;;;;;4867277;28;45352;-65
2022/05/07 11:39:54;;;;;;;2.17;1.13;;;23.60;47.10;;;;;;4897964;28;46058;-64
2022/05/07 11:42:38;;;;;;;1.63;1.10;;;23.60;47.10;;;;;;4880872;28;45458;-65
2022/05/07 11:45:30;;;;;;;0.90;0.90;;;23.60;47.00;;;;;;4900964;28;45568;-65
2022/05/07 11:47:57;;;;;;;1.38;1.00;;;23.60;47.00;;;;;;4914750;28;45903;-66
2022/05/07 11:50:25;;;;;;;1.38;1.23;;;23.60;47.00;;;;;;4916950;28;45138;-64
2022/05/07 11:52:51;;;;;;;1.40;1.30;;;23.60;47.10;;;;;;4898403;28;45354;-65
2022/05/07 11:55:19;;;;;;;1.20;1.10;;;23.60;47.10;;;;;;4890570;28;45790;-64
2022/05/07 11:57:47;;;;;;;2.75;1.20;;;23.60;47.00;;;;;;4902066;28;47283;-66
2022/05/07 12:00:17;;;;;;;1.40;1.30;;;23.60;47.00;;;;;;4902324;28;45640;-65
2022/05/07 12:03:02;;;;;;;1.60;1.10;;;23.60;47.00;;;;;;4902602;28;45609;-66
2022/05/07 12:05:44;;;;;;;1.20;1.10;;;23.70;47.00;;;;;;4893442;28;45339;-65
2022/05/07 12:08:14;;;;;;;1.33;1.13;;;23.70;47.00;;;;;;4921966;28;45447;-65
2022/05/07 12:10:39;;;;;;;1.20;1.10;;;23.70;47.00;;;;;;4905430;28;45331;-64
2022/05/07 12:13:05;;;;;;;1.60;1.10;;;23.70;47.00;;;;;;4873653;28;45687;-64
2022/05/07 12:18:15;;;;;;;1.50;1.08;;;23.70;47.00;;;;;;4925179;28;45151;-66
2022/05/07 12:20:40;;;;;;;1.35;1.17;;;23.70;47.00;;;;;;4905111;28;45908;-66
2022/05/07 12:31:18;;;;;;;1.38;1.08;;;23.80;47.10;;;;;;4906483;28;45639;-65
2022/05/07 12:33:44;;;;;;;1.55;1.08;;;23.70;47.00;;;;;;4888784;28;45527;-66
2022/05/07 12:36:09;;;;;;;1.17;1.08;;;23.80;47.00;;;;;;4905214;28;45510;-65
2022/05/07 12:38:35;;;;;;;1.08;1.00;;;23.80;47.10;;;;;;4893634;28;47278;-65
2022/05/07 12:41:00;;;;;;;1.83;1.10;;;23.80;47.00;;;;;;4928035;28;45603;-65
2022/05/07 12:43:26;;;;;;;1.15;1.00;;;23.80;47.10;;;;;;4892583;28;45710;-65
2022/05/07 12:45:52;;;;;;;1.15;1.00;;;23.80;47.00;;;;;;4908129;28;45226;-65
2022/05/07 12:48:18;;;;;;;2.45;1.20;;;23.80;47.00;;;;;;4900176;28;45704;-66
2022/05/07 12:50:46;;;;;;;1.17;1.02;;;23.80;47.00;;;;;;4907868;28;45244;-65
2022/05/07 12:53:14;;;;;;;2.30;1.33;;;23.80;47.00;;;;;;4910187;28;45238;-66
2022/05/07 12:55:42;;;;;;;1.15;1.13;;;23.80;47.50;;;;;;4907286;28;45654;-65
2022/05/07 12:58:09;;;;;;;1.20;1.10;;;23.80;46.90;;;;;;4927950;28;46893;-65
2022/05/07 13:00:35;;;;;;;1.65;1.33;;;23.90;46.90;;;;;;4899329;28;47081;-65
2022/05/07 13:03:02;;;;;;;1.40;1.15;;;23.80;47.50;;;;;;4908509;28;45554;-65
2022/05/07 13:05:28;;;;;;;1.48;1.27;;;23.90;47.00;;;;;;4893111;28;45932;-65
2022/05/07 13:07:53;;;;;;;1.30;1.20;;;23.80;46.90;;;;;;4907120;28;46041;-65
2022/05/07 13:10:19;;;;;;;2.65;1.20;;;23.90;46.90;;;;;;4925199;28;45370;-66
2022/05/07 13:12:46;;;;;;;1.48;1.25;;;23.80;47.00;;;;;;4926832;28;44803;-65
2022/05/07 13:15:12;;;;;;;3.22;1.17;;;23.80;46.90;;;;;;4875522;28;45786;-66
2022/05/07 13:17:38;;;;;;;1.65;1.17;;;23.90;46.90;;;;;;4889465;28;45709;-64
2022/05/07 13:20:04;;;;;;;1.40;1.30;;;23.90;46.90;;;;;;4906836;28;45559;-66
2022/05/07 13:22:32;;;;;;;2.67;1.15;;;23.90;46.90;;;;;;4926211;28;45594;-66
2022/05/07 13:24:58;;;;;;;1.40;1.00;;;23.90;46.90;;;;;;4891870;28;45789;-65
2022/05/07 13:27:23;;;;;;;1.50;1.27;;;23.90;47.50;;;;;;4924497;28;45539;-64
2022/05/07 13:29:49;;;;;;;1.40;1.30;;;23.90;46.80;;;;;;4906019;28;46369;-65
2022/05/07 13:32:14;;;;;;;1.20;1.10;;;23.90;46.80;;;;;;4905702;28;45564;-64
2022/05/07 13:34:42;;;;;;;1.25;1.15;;;23.90;46.80;;;;;;4925610;28;45768;-66
2022/05/07 13:37:07;;;;;;;1.33;1.23;;;24.00;46.80;;;;;;4889969;28;45538;-65
2022/05/07 13:39:33;;;;;;;1.50;1.00;;;23.90;46.80;;;;;;4903061;28;45622;-66
2022/05/07 13:42:00;;;;;;;1.85;1.27;;;23.90;46.70;;;;;;4885637;28;44842;-66
2022/05/07 13:44:29;;;;;;;1.00;1.00;;;24.00;46.80;;;;;;4888461;28;46315;-65
2022/05/07 13:46:54;;;;;;;1.23;1.13;;;24.00;46.80;;;;;;4903030;28;47011;-65
2022/05/07 13:49:20;;;;;;;1.38;1.20;;;24.00;46.80;;;;;;4922050;28;45226;-65
2022/05/07 13:51:46;;;;;;;1.33;1.17;;;23.90;46.70;;;;;;4921190;28;45271;-66
2022/05/07 13:54:12;;;;;;;1.25;1.15;;;24.00;46.80;;;;;;4888613;28;46012;-65
2022/05/07 13:56:37;;;;;;;3.30;1.50;;;23.90;46.70;;;;;;4887708;28;45583;-66
2022/05/07 13:59:03;;;;;;;1.50;1.13;;;24.00;46.80;;;;;;4904676;28;45321;-66
2022/05/07 14:01:28;;;;;;;1.35;1.10;;;23.90;46.70;;;;;;4856191;28;1117337;-66
2022/05/07 14:03:54;;;;;;;1.85;1.20;;;24.00;46.80;;;;;;4896328;28;45468;-66
2022/05/07 14:06:22;;;;;;;1.58;1.20;;;23.90;46.70;;;;;;4927146;28;45558;-66
2022/05/07 14:08:48;;;;;;;1.13;1.08;;;24.00;46.80;;;;;;4908532;28;46476;-66
2022/05/07 14:11:14;;;;;;;1.38;1.20;;;24.00;46.70;;;;;;4907743;28;46225;-66
2022/05/07 14:13:40;;;;;;;1.38;1.27;;;24.00;46.70;;;;;;4892695;28;46402;-66
2022/05/07 14:16:05;;;;;;;1.48;1.35;;;24.00;46.70;;;;;;4921927;28;47847;-65
2022/05/07 14:18:31;;;;;;;1.70;1.40;;;24.00;46.70;;;;;;4926961;28;45346;-66
2022/05/07 14:20:58;;;;;;;2.53;1.70;;;24.00;46.70;;;;;;4882354;28;45827;-64
2022/05/07 14:23:23;;;;;;;1.40;1.30;;;24.00;46.70;;;;;;4908346;28;46240;-65
2022/05/07 14:25:49;;;;;;;1.65;1.55;;;24.00;46.70;;;;;;4907630;28;47418;-65
2022/05/07 14:28:15;;;;;;;2.28;1.48;;;24.00;46.60;;;;;;4891464;28;46600;-66
2022/05/07 14:30:41;;;;;;;1.00;1.00;;;24.00;46.60;;;;;;4926082;28;45758;-66
2022/05/07 14:33:08;;;;;;;1.10;1.00;;;24.00;46.60;;;;;;4910508;28;45948;-65
2022/05/07 14:35:34;;;;;;;1.10;1.10;;;24.00;46.60;;;;;;4901107;28;47193;-66
2022/05/07 14:38:00;;;;;;;3.60;1.30;;;24.00;46.60;;;;;;4928738;28;44723;-66
2022/05/07 14:40:28;;;;;;;1.30;1.20;;;24.00;46.60;;;;;;4930212;28;44785;-65
2022/05/07 14:42:54;;;;;;;1.30;1.20;;;24.00;46.70;;;;;;4896528;28;45299;-65
2022/05/07 14:45:23;;;;;;;1.90;1.20;;;24.00;47.20;;;;;;4910101;28;46315;-65
2022/05/07 14:47:49;;;;;;;1.45;1.08;;;24.00;46.60;;;;;;4895598;28;45172;-66
2022/05/07 14:50:14;;;;;;;1.30;1.20;;;24.00;46.70;;;;;;4912014;28;46172;-66
2022/05/07 14:52:40;;;;;;;1.35;1.25;;;24.00;46.60;;;;;;4899978;28;45268;-66
2022/05/07 14:55:06;;;;;;;2.03;1.38;;;24.00;46.60;;;;;;4910815;28;45560;-65
2022/05/07 14:57:32;;;;;;;1.50;1.40;;;24.00;46.70;;;;;;4909385;28;45368;-66
2022/05/07 14:59:58;;;;;;;1.20;1.10;;;24.00;46.70;;;;;;4909922;28;45203;-66
2022/05/07 15:02:23;;;;;;;1.45;1.30;;;24.00;46.70;;;;;;4910727;28;45574;-66
2022/05/07 15:04:49;;;;;;;1.40;1.30;;;24.00;46.70;;;;;;4926746;28;46409;-66
2022/05/07 15:07:14;;;;;;;1.50;1.40;;;24.00;46.70;;;;;;4927443;28;45244;-65
2022/05/07 15:12:24;;;;;;;1.40;1.30;;;24.00;46.70;;;;;;4927668;28;45537;-65
2022/05/07 15:14:50;;;;;;;1.50;1.40;;;24.00;46.60;;;;;;4880956;28;46888;-66
2022/05/07 15:17:15;;;;;;;1.23;1.17;;;24.00;46.60;;;;;;4901291;28;45370;-66
2022/05/07 15:19:41;;;;;;;1.45;1.35;;;24.00;46.60;;;;;;4895570;28;45367;-66
2022/05/07 15:22:06;;;;;;;1.50;1.40;;;24.00;46.60;;;;;;4929760;28;45282;-66
2022/05/07 15:24:32;;;;;;;1.33;1.08;;;24.00;46.60;;;;;;4910753;28;45715;-65
2022/05/07 15:26:58;;;;;;;1.40;1.30;;;24.00;46.70;;;;;;4910719;28;46207;-64
2022/05/07 15:29:23;;;;;;;1.10;1.10;;;24.00;46.60;;;;;;4908811;28;45406;-66
2022/05/07 15:37:19;;;;;;;1.30;1.15;;;24.00;46.70;;;;;;4910636;28;45219;-65
2022/05/07 15:39:44;;;;;;;1.77;1.50;;;24.00;46.60;;;;;;4909291;28;45597;-65
2022/05/07 15:42:10;;;;;;;1.40;1.30;;;24.00;46.60;;;;;;4884145;28;45558;-65
2022/05/07 15:44:36;;;;;;;1.88;1.55;;;24.00;46.60;;;;;;4910726;28;46124;-66
2022/05/07 15:47:01;;;;;;;1.33;1.10;;;24.00;46.60;;;;;;4901506;28;45377;-66
2022/05/07 15:49:28;;;;;;;1.40;1.30;;;24.00;46.60;;;;;;4894703;28;45216;-66
2022/05/07 15:51:54;;;;;;;1.77;1.40;;;24.00;46.60;;;;;;4927683;28;45734;-64
2022/05/07 15:54:20;;;;;;;1.73;1.35;;;24.00;46.60;;;;;;4901335;28;45518;-65
2022/05/07 15:56:46;;;;;;;1.38;1.17;;;24.00;46.50;;;;;;4907379;28;46318;-66
2022/05/07 15:59:13;;;;;;;1.35;1.25;;;24.10;46.50;;;;;;4905761;28;46024;-66
2022/05/07 16:01:38;;;;;;;1.48;1.35;;;24.10;46.50;;;;;;4890960;28;45099;-64
2022/05/07 16:04:07;;;;;;;1.45;1.33;;;24.10;46.50;;;;;;4907123;28;45584;-65
2022/05/07 16:06:35;;;;;;;1.48;1.38;;;24.10;46.50;;;;;;4906982;28;45304;-66
2022/05/07 16:09:01;;;;;;;1.38;1.27;;;24.10;46.50;;;;;;4876514;28;45429;-66
2022/05/07 16:11:27;;;;;;;1.23;1.13;;;24.10;46.50;;;;;;4914839;28;45498;-66
2022/05/07 16:13:52;;;;;;;1.88;1.40;;;24.10;46.50;;;;;;4909814;28;46551;-66
2022/05/07 16:16:20;;;;;;;1.92;1.23;;;24.10;46.40;;;;;;4910016;28;45349;-64
2022/05/07 16:18:46;;;;;;;1.30;1.20;;;24.10;46.40;;;;;;4911079;28;46224;-65
2022/05/07 16:21:11;;;;;;;1.38;1.23;;;24.10;46.40;;;;;;4878532;28;45763;-66
2022/05/07 16:26:22;;;;;;;1.60;1.48;;;24.10;46.40;;;;;;4911792;28;45240;-65
2022/05/07 16:28:47;;;;;;;1.70;1.20;;;24.10;46.40;;;;;;4908052;28;46227;-65
2022/05/07 16:31:13;;;;;;;1.50;1.40;;;24.10;46.40;;;;;;4907276;28;45587;-65